createdAt,value
2019-01-31T00:01:12.179Z,12.15
2019-01-31T00:04:14.093Z,16.32
2019-01-31T00:07:15.422Z,17.77
2019-01-31T00:10:18.427Z,18.62
2019-01-31T00:13:20.382Z,17.50
2019-01-31T00:16:37.661Z,22.22
2019-01-31T00:19:22.524Z,19.17
2019-01-31T00:22:28.695Z,19.32
2019-01-31T00:25:32.306Z,21.62
2019-01-31T00:28:35.782Z,22.30
2019-01-31T00:31:55.142Z,27.37
2019-01-31T00:34:47.483Z,26.42
2019-01-31T00:38:00.870Z,19.95
2019-01-31T00:41:35.598Z,21.90
2019-01-31T00:44:30.290Z,17.17
2019-01-31T00:47:06.582Z,11.57
2019-01-31T00:50:00.185Z,14.55
2019-01-31T00:53:04.743Z,14.55
2019-01-31T00:56:13.576Z,16.65
2019-01-31T00:59:19.019Z,14.85
2019-01-31T01:02:02.763Z,20.82
2019-01-31T01:04:57.724Z,15.83
2019-01-31T01:07:48.882Z,11.25
2019-01-31T01:11:04.182Z,13.98
2019-01-31T01:14:08.180Z,13.40
2019-01-31T01:17:01.947Z,13.93
2019-01-31T01:20:14.803Z,13.03
2019-01-31T01:23:02.447Z,12.05
2019-01-31T01:26:12.585Z,15.35
2019-01-31T01:28:52.381Z,11.65
2019-01-31T01:32:10.903Z,10.75
2019-01-31T01:35:26.951Z,10.32
2019-01-31T01:38:22.886Z,12.23
2019-01-31T01:41:04.102Z,7.87
2019-01-31T01:44:20.497Z,12.23
2019-01-31T01:47:22.862Z,13.53
2019-01-31T01:49:55.858Z,11.75
2019-01-31T01:52:37.397Z,12.40
2019-01-31T01:55:15.231Z,11.03
2019-01-31T01:58:27.483Z,11.22
2019-01-31T02:01:25.588Z,12.00
2019-01-31T02:04:28.111Z,10.80
2019-01-31T02:07:41.184Z,9.90
2019-01-31T02:11:06.918Z,11.60
2019-01-31T02:14:21.145Z,11.80
2019-01-31T02:17:01.894Z,14.30
2019-01-31T02:20:12.434Z,16.10
2019-01-31T02:23:11.081Z,16.00
2019-01-31T02:26:02.722Z,19.35
2019-01-31T02:29:03.300Z,21.87
2019-01-31T02:31:52.045Z,27.93
2019-01-31T02:35:23.412Z,30.37
2019-01-31T02:38:10.789Z,26.93
2019-01-31T02:41:01.594Z,33.88
2019-01-31T02:43:49.191Z,36.90
2019-01-31T02:46:53.398Z,27.17
2019-01-31T02:49:45.782Z,24.12
2019-01-31T02:52:55.741Z,23.38
2019-01-31T02:56:02.861Z,29.98
2019-01-31T02:59:15.930Z,25.12
2019-01-31T03:02:18.546Z,24.27
2019-01-31T03:05:10.299Z,24.40
2019-01-31T03:08:32.684Z,25.92
2019-01-31T03:11:11.986Z,25.10
2019-01-31T03:14:10.049Z,24.63
2019-01-31T03:17:17.410Z,24.92
2019-01-31T03:20:20.611Z,22.07
2019-01-31T03:23:35.927Z,24.18
2019-01-31T03:26:36.798Z,24.70
2019-01-31T03:29:21.486Z,30.50
2019-01-31T03:32:37.901Z,31.10
2019-01-31T03:35:35.329Z,29.30
2019-01-31T03:38:31.159Z,34.30
2019-01-31T03:41:10.821Z,28.00
2019-01-31T03:44:27.576Z,29.82
2019-01-31T03:47:39.407Z,29.40
2019-01-31T03:50:22.668Z,25.57
2019-01-31T03:53:21.822Z,29.02
2019-01-31T03:56:04.241Z,27.35
2019-01-31T03:58:56.250Z,30.75
2019-01-31T04:02:05.424Z,26.60
2019-01-31T04:04:38.748Z,26.97
2019-01-31T04:07:07.490Z,28.87
2019-01-31T04:09:36.229Z,30.52
2019-01-31T04:12:05.006Z,29.32
2019-01-31T04:14:33.863Z,27.48
2019-01-31T04:17:02.692Z,31.42
2019-01-31T04:19:31.614Z,29.85
2019-01-31T04:22:00.419Z,29.18
2019-01-31T04:24:29.512Z,32.60
2019-01-31T04:26:58.346Z,28.02
2019-01-31T04:29:27.178Z,29.07
2019-01-31T04:31:56.029Z,32.85
2019-01-31T04:34:24.800Z,36.60
2019-01-31T04:36:53.709Z,30.65
2019-01-31T04:39:22.463Z,31.10
2019-01-31T04:41:51.232Z,31.97
2019-01-31T04:44:20.127Z,32.20
2019-01-31T04:46:49.012Z,34.78
2019-01-31T04:49:17.958Z,32.23
2019-01-31T04:51:46.728Z,33.30
2019-01-31T04:54:15.504Z,30.02
2019-01-31T04:56:46.256Z,30.75
2019-01-31T04:59:15.014Z,29.00
2019-01-31T05:01:44.648Z,33.78
2019-01-31T05:04:13.541Z,33.70
2019-01-31T05:06:42.411Z,27.93
2019-01-31T05:09:11.480Z,27.05
2019-01-31T05:11:40.357Z,32.65
2019-01-31T05:14:09.222Z,27.95
2019-01-31T05:16:38.073Z,25.30
2019-01-31T05:19:06.943Z,27.35
2019-01-31T05:21:35.794Z,26.12
2019-01-31T05:24:04.747Z,26.25
2019-01-31T05:26:33.599Z,25.88
2019-01-31T05:29:02.366Z,29.20
2019-01-31T05:31:31.186Z,24.18
2019-01-31T05:34:00.167Z,24.20
2019-01-31T05:36:28.976Z,23.83
2019-01-31T05:38:57.837Z,22.32
2019-01-31T05:41:26.702Z,21.55
2019-01-31T05:43:55.446Z,24.20
2019-01-31T05:46:24.207Z,22.02
2019-01-31T05:48:54.346Z,19.67
2019-01-31T05:51:23.102Z,21.10
2019-01-31T05:53:51.836Z,21.90
2019-01-31T05:56:20.778Z,24.20
2019-01-31T05:58:49.614Z,23.32
2019-01-31T06:01:18.710Z,22.30
2019-01-31T06:03:47.558Z,24.52
2019-01-31T06:06:16.389Z,23.83
2019-01-31T06:08:45.256Z,21.48
2019-01-31T06:11:13.977Z,24.65
2019-01-31T06:13:42.703Z,25.52
2019-01-31T06:16:11.537Z,28.27
2019-01-31T06:18:40.411Z,26.77
2019-01-31T06:21:09.134Z,26.97
2019-01-31T06:23:37.903Z,24.15
2019-01-31T06:26:06.715Z,27.67
2019-01-31T06:28:35.465Z,27.20
2019-01-31T06:31:04.195Z,25.37
2019-01-31T06:33:32.887Z,23.75
2019-01-31T06:36:01.715Z,29.98
2019-01-31T06:38:30.584Z,26.35
2019-01-31T06:40:59.286Z,25.60
2019-01-31T06:43:28.005Z,25.05
2019-01-31T06:45:56.763Z,23.83
2019-01-31T06:48:25.504Z,23.85
2019-01-31T06:50:54.302Z,20.68
2019-01-31T06:53:23.053Z,24.92
2019-01-31T06:55:51.789Z,25.90
2019-01-31T06:58:20.510Z,27.02
2019-01-31T07:00:49.381Z,28.92
2019-01-31T07:03:18.087Z,25.27
2019-01-31T07:05:47.063Z,26.73
2019-01-31T07:08:15.994Z,34.67
2019-01-31T07:10:44.811Z,30.00
2019-01-31T07:13:13.618Z,30.32
2019-01-31T07:15:42.404Z,31.65
2019-01-31T07:18:11.159Z,32.53
2019-01-31T07:20:40.125Z,33.50
2019-01-31T07:23:10.273Z,34.53
2019-01-31T07:25:39.109Z,41.18
2019-01-31T07:28:07.985Z,36.05
2019-01-31T07:30:36.749Z,36.70
2019-01-31T07:33:05.563Z,37.58
2019-01-31T07:35:34.295Z,39.63
2019-01-31T07:38:03.098Z,37.45
2019-01-31T07:40:31.902Z,38.00
2019-01-31T07:43:00.648Z,35.83
2019-01-31T07:45:30.711Z,37.40
2019-01-31T07:47:59.508Z,39.40
2019-01-31T07:50:28.210Z,40.58
2019-01-31T07:52:57.015Z,40.85
2019-01-31T07:55:25.781Z,41.55
2019-01-31T07:57:54.522Z,47.33
2019-01-31T08:00:23.454Z,50.95
2019-01-31T08:02:52.176Z,44.48
2019-01-31T08:05:21.471Z,47.33
2019-01-31T08:07:51.443Z,51.83
2019-01-31T08:10:22.807Z,62.35
2019-01-31T08:12:51.590Z,63.80
2019-01-31T08:15:20.350Z,70.32
2019-01-31T08:17:49.093Z,75.00
2019-01-31T08:20:17.938Z,83.00
2019-01-31T08:22:46.791Z,97.40
2019-01-31T08:25:17.574Z,131.90
2019-01-31T08:27:46.402Z,149.53
2019-01-31T08:30:18.014Z,175.12
2019-01-31T08:32:46.780Z,222.55
2019-01-31T08:35:15.598Z,219.55
2019-01-31T08:37:44.400Z,237.40
2019-01-31T08:40:13.189Z,214.72
2019-01-31T08:42:41.940Z,202.60
2019-01-31T08:45:11.665Z,208.02
2019-01-31T08:47:40.451Z,216.50
2019-01-31T08:50:13.914Z,210.08
2019-01-31T08:52:42.654Z,217.32
2019-01-31T08:55:11.448Z,209.80
2019-01-31T08:57:40.230Z,234.80
2019-01-31T09:00:12.880Z,185.70
2019-01-31T09:02:41.643Z,190.00
2019-01-31T09:05:10.463Z,210.88
2019-01-31T09:07:39.250Z,190.25
2019-01-31T09:10:11.154Z,231.05
2019-01-31T09:12:39.914Z,250.65
2019-01-31T09:15:09.461Z,215.35
2019-01-31T09:17:38.181Z,192.25
2019-01-31T09:20:09.378Z,202.00
2019-01-31T09:22:58.039Z,186.47
2019-01-31T09:26:16.812Z,202.82
2019-01-31T09:29:42.015Z,203.25
2019-01-31T09:32:44.494Z,216.82
2019-01-31T09:35:27.478Z,207.92
2019-01-31T09:38:37.634Z,206.78
2019-01-31T09:42:03.151Z,203.25
2019-01-31T09:45:04.939Z,193.82
2019-01-31T09:48:17.901Z,182.62
2019-01-31T09:51:30.961Z,179.65
2019-01-31T09:54:33.994Z,166.15
2019-01-31T09:57:27.290Z,175.50
2019-01-31T10:00:28.811Z,168.60
2019-01-31T10:03:37.918Z,153.25
2019-01-31T10:06:28.154Z,142.28
2019-01-31T10:09:21.470Z,142.05
2019-01-31T10:12:16.813Z,125.33
2019-01-31T10:15:29.919Z,140.20
2019-01-31T10:18:34.015Z,126.92
2019-01-31T10:21:44.135Z,108.22
2019-01-31T10:24:50.946Z,104.17
2019-01-31T10:27:54.488Z,119.55
2019-01-31T10:31:17.029Z,99.70
2019-01-31T10:34:27.814Z,90.53
2019-01-31T10:37:38.608Z,91.08
2019-01-31T10:40:48.400Z,94.80
2019-01-31T10:43:34.923Z,96.22
2019-01-31T10:46:54.026Z,102.02
2019-01-31T10:50:00.545Z,90.00
2019-01-31T10:52:42.846Z,96.08
2019-01-31T10:56:05.139Z,93.47
2019-01-31T10:59:00.398Z,96.20
2019-01-31T11:02:00.342Z,105.83
2019-01-31T11:05:31.978Z,100.58
2019-01-31T11:08:18.214Z,107.67
2019-01-31T11:11:05.159Z,104.70
2019-01-31T11:14:03.334Z,103.83
2019-01-31T11:17:05.004Z,87.42
2019-01-31T11:19:59.514Z,77.60
2019-01-31T11:23:28.235Z,76.33
2019-01-31T11:26:31.734Z,84.62
2019-01-31T11:29:40.016Z,73.12
2019-01-31T11:32:47.358Z,69.00
2019-01-31T11:36:02.446Z,60.88
2019-01-31T11:39:15.435Z,69.62
2019-01-31T11:42:18.914Z,64.58
2019-01-31T11:45:32.033Z,71.62
2019-01-31T11:48:28.674Z,86.70
2019-01-31T11:52:00.062Z,89.50
2019-01-31T11:55:05.279Z,92.97
2019-01-31T11:57:50.747Z,89.07
2019-01-31T12:00:22.058Z,88.87
2019-01-31T12:02:55.022Z,104.58
2019-01-31T12:05:21.645Z,110.42
2019-01-31T12:07:50.420Z,114.32
2019-01-31T12:10:19.154Z,114.47
2019-01-31T12:12:47.975Z,118.33
2019-01-31T12:15:16.739Z,136.65
2019-01-31T12:17:48.362Z,129.60
2019-01-31T12:20:17.127Z,136.52
2019-01-31T12:22:45.858Z,135.93
2019-01-31T12:25:14.609Z,151.45
2019-01-31T12:27:43.530Z,153.05
2019-01-31T12:30:18.878Z,142.22
2019-01-31T12:32:47.693Z,142.82
2019-01-31T12:35:16.531Z,129.93
2019-01-31T12:37:45.258Z,130.87
2019-01-31T12:40:15.355Z,135.35
2019-01-31T12:42:44.091Z,138.62
2019-01-31T12:45:14.838Z,131.30
2019-01-31T12:47:43.603Z,133.45
2019-01-31T12:50:15.238Z,130.97
2019-01-31T12:52:43.991Z,129.97
2019-01-31T12:55:12.755Z,114.95
2019-01-31T12:57:41.563Z,136.28
2019-01-31T13:00:20.571Z,127.15
2019-01-31T13:02:49.305Z,110.85
2019-01-31T13:05:18.152Z,112.72
2019-01-31T13:07:47.012Z,118.30
2019-01-31T13:10:15.868Z,119.72
2019-01-31T13:12:48.964Z,102.82
2019-01-31T13:15:15.433Z,122.05
2019-01-31T13:17:44.238Z,108.15
2019-01-31T13:20:16.054Z,100.07
2019-01-31T13:22:44.801Z,101.92
2019-01-31T13:25:14.042Z,108.63
2019-01-31T13:27:42.906Z,105.20
2019-01-31T13:30:14.536Z,102.97
2019-01-31T13:32:43.462Z,96.47
2019-01-31T13:35:12.362Z,89.47
2019-01-31T13:37:41.255Z,95.77
2019-01-31T13:40:13.128Z,90.40
2019-01-31T13:42:41.877Z,86.02
2019-01-31T13:45:11.781Z,85.35
2019-01-31T13:47:40.695Z,82.35
2019-01-31T13:50:10.837Z,91.75
2019-01-31T13:52:39.602Z,93.52
2019-01-31T13:55:18.569Z,90.10
2019-01-31T13:57:46.295Z,98.58
2019-01-31T14:00:15.731Z,89.77
2019-01-31T14:02:44.470Z,93.03
2019-01-31T14:05:13.290Z,82.33
2019-01-31T14:07:42.022Z,90.55
2019-01-31T14:10:13.189Z,81.50
2019-01-31T14:12:42.020Z,82.62
2019-01-31T14:15:11.512Z,75.50
2019-01-31T14:17:40.319Z,68.05
2019-01-31T14:20:11.842Z,79.85
2019-01-31T14:22:42.991Z,73.85
2019-01-31T14:25:11.128Z,74.20
2019-01-31T14:27:39.917Z,73.10
2019-01-31T14:30:14.198Z,75.47
2019-01-31T14:32:43.574Z,67.08
2019-01-31T14:35:12.398Z,65.65
2019-01-31T14:37:41.290Z,69.35
2019-01-31T14:40:10.526Z,56.25
2019-01-31T14:42:39.566Z,54.93
2019-01-31T14:45:09.145Z,55.45
2019-01-31T14:47:37.970Z,61.10
2019-01-31T14:50:08.798Z,57.43
2019-01-31T14:52:37.716Z,54.13
2019-01-31T14:55:07.477Z,54.23
2019-01-31T14:57:36.306Z,49.33
2019-01-31T15:00:07.292Z,45.95
2019-01-31T15:02:36.208Z,46.98
2019-01-31T15:05:07.463Z,45.78
2019-01-31T15:07:36.226Z,50.63
2019-01-31T15:10:07.290Z,52.98
2019-01-31T15:12:36.038Z,54.83
2019-01-31T15:15:05.914Z,52.43
2019-01-31T15:17:36.050Z,58.10
2019-01-31T15:20:10.470Z,58.68
2019-01-31T15:22:39.459Z,63.75
2019-01-31T15:25:08.487Z,58.87
2019-01-31T15:27:37.305Z,61.68
2019-01-31T15:30:08.143Z,54.40
2019-01-31T15:32:36.883Z,60.88
2019-01-31T15:35:06.099Z,54.70
2019-01-31T15:37:34.923Z,60.38
2019-01-31T15:40:04.241Z,56.15
2019-01-31T15:42:32.999Z,56.28
2019-01-31T15:45:01.752Z,53.38
2019-01-31T15:47:31.378Z,54.20
2019-01-31T15:50:00.196Z,62.33
2019-01-31T15:52:28.976Z,61.13
2019-01-31T15:54:57.751Z,62.78
2019-01-31T15:57:26.655Z,67.27
2019-01-31T15:59:55.490Z,63.00
2019-01-31T16:02:24.321Z,66.00
2019-01-31T16:04:53.075Z,64.80
2019-01-31T16:07:21.852Z,71.37
2019-01-31T16:09:50.627Z,73.65
2019-01-31T16:12:19.351Z,70.62
2019-01-31T16:14:54.561Z,59.40
2019-01-31T16:17:18.789Z,57.55
2019-01-31T16:19:47.642Z,55.98
2019-01-31T16:22:16.622Z,48.83
2019-01-31T16:24:45.451Z,50.78
2019-01-31T16:27:14.254Z,53.23
2019-01-31T16:29:43.038Z,48.75
2019-01-31T16:32:13.700Z,47.35
2019-01-31T16:34:42.446Z,48.17
2019-01-31T16:37:11.323Z,50.08
2019-01-31T16:39:40.098Z,49.08
2019-01-31T16:42:08.845Z,47.35
2019-01-31T16:44:37.627Z,54.60
2019-01-31T16:47:06.448Z,47.50
2019-01-31T16:49:35.267Z,49.80
2019-01-31T16:52:05.825Z,48.08
2019-01-31T16:54:35.654Z,43.60
2019-01-31T16:57:04.603Z,45.17
2019-01-31T16:59:34.243Z,51.53
2019-01-31T17:02:06.847Z,50.23
2019-01-31T17:04:37.565Z,48.95
2019-01-31T17:07:08.504Z,55.67
2019-01-31T17:09:39.455Z,54.38
2019-01-31T17:12:12.582Z,55.78
2019-01-31T17:14:41.410Z,57.78
2019-01-31T17:17:11.076Z,64.67
2019-01-31T17:19:39.826Z,63.13
2019-01-31T17:22:09.498Z,70.28
2019-01-31T17:24:40.061Z,73.07
2019-01-31T17:27:11.362Z,80.95
2019-01-31T17:29:41.582Z,78.05
2019-01-31T17:32:13.089Z,82.72
2019-01-31T17:34:43.599Z,86.60
2019-01-31T17:37:14.019Z,92.20
2019-01-31T17:39:44.599Z,87.57
2019-01-31T17:42:15.213Z,89.58
2019-01-31T17:44:45.895Z,78.05
2019-01-31T17:47:16.275Z,95.45
2019-01-31T17:49:48.461Z,90.12
2019-01-31T17:52:18.320Z,87.37
2019-01-31T17:54:48.329Z,80.35
2019-01-31T17:57:18.671Z,84.35
2019-01-31T17:59:47.604Z,87.37
2019-01-31T18:02:16.546Z,81.37
2019-01-31T18:04:45.290Z,86.32
2019-01-31T18:07:14.121Z,83.55
2019-01-31T18:09:42.942Z,84.77
2019-01-31T18:12:14.166Z,71.50
2019-01-31T18:14:42.915Z,75.20
2019-01-31T18:17:14.802Z,78.57
2019-01-31T18:19:44.548Z,70.95
2019-01-31T18:22:13.396Z,75.37
2019-01-31T18:24:42.221Z,71.22
2019-01-31T18:27:12.546Z,72.72
2019-01-31T18:29:41.390Z,67.45
2019-01-31T18:32:10.106Z,59.48
2019-01-31T18:34:38.981Z,68.15
2019-01-31T18:37:10.942Z,68.65
2019-01-31T18:39:39.812Z,78.85
2019-01-31T18:42:08.546Z,77.80
2019-01-31T18:44:40.254Z,59.60
2019-01-31T18:47:09.020Z,67.70
2019-01-31T18:49:37.844Z,66.30
2019-01-31T18:52:06.582Z,60.12
2019-01-31T18:54:35.410Z,72.70
2019-01-31T18:57:04.200Z,74.27
2019-01-31T18:59:32.914Z,73.55
2019-01-31T19:02:01.777Z,70.08
2019-01-31T19:04:30.531Z,67.22
2019-01-31T19:06:59.422Z,71.57
2019-01-31T19:09:29.570Z,73.45
2019-01-31T19:11:58.375Z,65.90
2019-01-31T19:14:27.308Z,73.80
2019-01-31T19:16:56.098Z,69.53
2019-01-31T19:19:25.115Z,76.30
2019-01-31T19:21:53.873Z,69.87
2019-01-31T19:24:22.667Z,70.28
2019-01-31T19:26:51.522Z,83.97
2019-01-31T19:29:21.741Z,76.05
2019-01-31T19:31:50.520Z,80.40
2019-01-31T19:34:19.260Z,92.95
2019-01-31T19:36:48.011Z,84.75
2019-01-31T19:39:18.372Z,66.70
2019-01-31T19:41:47.293Z,67.05
2019-01-31T19:44:16.030Z,63.95
2019-01-31T19:46:44.846Z,67.67
2019-01-31T19:49:13.618Z,67.42
2019-01-31T19:51:43.595Z,71.90
2019-01-31T19:54:13.673Z,85.40
2019-01-31T19:56:42.603Z,86.75
2019-01-31T19:59:14.260Z,70.03
2019-01-31T20:01:43.099Z,73.95
2019-01-31T20:04:11.852Z,72.22
2019-01-31T20:06:46.266Z,63.42
2019-01-31T20:09:24.788Z,70.70
2019-01-31T20:11:53.572Z,63.55
2019-01-31T20:14:22.342Z,66.17
2019-01-31T20:16:51.081Z,67.60
2019-01-31T20:19:19.869Z,71.00
2019-01-31T20:21:48.706Z,63.08
2019-01-31T20:24:17.556Z,60.55
2019-01-31T20:26:47.235Z,64.92
2019-01-31T20:29:16.144Z,65.85
2019-01-31T20:31:44.962Z,60.78
2019-01-31T20:34:13.694Z,62.73
2019-01-31T20:36:42.439Z,62.10
2019-01-31T20:39:12.754Z,65.35
2019-01-31T20:41:41.547Z,58.55
2019-01-31T20:44:10.311Z,60.88
2019-01-31T20:46:40.407Z,58.83
2019-01-31T20:49:09.463Z,68.37
2019-01-31T20:51:38.311Z,61.00
2019-01-31T20:54:07.158Z,62.67
2019-01-31T20:56:36.052Z,67.12
2019-01-31T20:59:04.869Z,64.17
2019-01-31T21:01:33.639Z,70.17
2019-01-31T21:04:02.675Z,71.33
2019-01-31T21:06:41.196Z,72.45
2019-01-31T21:09:02.016Z,81.72
2019-01-31T21:11:30.729Z,75.62
2019-01-31T21:13:59.490Z,71.60
2019-01-31T21:16:28.361Z,77.10
2019-01-31T21:18:57.174Z,72.05
2019-01-31T21:21:26.015Z,72.82
2019-01-31T21:23:56.351Z,80.83
2019-01-31T21:26:26.752Z,75.55
2019-01-31T21:28:55.802Z,81.10
2019-01-31T21:31:24.644Z,75.40
2019-01-31T21:33:53.386Z,82.55
2019-01-31T21:36:22.191Z,86.25
2019-01-31T21:38:51.054Z,91.08
2019-01-31T21:41:19.914Z,89.05
2019-01-31T21:43:48.800Z,91.47
2019-01-31T21:46:18.478Z,88.65
2019-01-31T21:48:47.321Z,98.72
2019-01-31T21:51:16.072Z,86.50
2019-01-31T21:53:44.870Z,91.85
2019-01-31T21:56:13.661Z,89.77
2019-01-31T21:58:42.410Z,96.45
2019-01-31T22:01:11.175Z,91.40
2019-01-31T22:03:39.925Z,96.53
2019-01-31T22:06:08.690Z,99.17
2019-01-31T22:08:37.434Z,86.67
2019-01-31T22:11:06.163Z,89.50
2019-01-31T22:13:34.906Z,82.80
2019-01-31T22:16:03.638Z,88.85
2019-01-31T22:18:32.414Z,87.90
2019-01-31T22:21:01.499Z,86.00
2019-01-31T22:23:31.773Z,84.92
2019-01-31T22:26:01.407Z,83.62
2019-01-31T22:28:31.730Z,85.22
2019-01-31T22:31:00.469Z,85.03
2019-01-31T22:33:29.326Z,84.70
2019-01-31T22:35:58.599Z,77.25
2019-01-31T22:38:27.441Z,77.32
2019-01-31T22:40:56.155Z,84.90
2019-01-31T22:43:24.913Z,82.30
2019-01-31T22:45:53.649Z,77.00
2019-01-31T22:48:22.451Z,77.97
2019-01-31T22:50:51.454Z,70.92
2019-01-31T22:53:20.177Z,78.72
2019-01-31T22:55:48.902Z,76.65
2019-01-31T22:58:17.645Z,80.90
2019-01-31T23:01:21.986Z,77.03
2019-01-31T23:03:50.782Z,83.05
2019-01-31T23:06:19.559Z,83.22
2019-01-31T23:08:48.450Z,75.10
2019-01-31T23:11:17.179Z,78.37
2019-01-31T23:13:46.010Z,74.35
2019-01-31T23:16:15.091Z,87.33
2019-01-31T23:18:43.833Z,78.15
2019-01-31T23:21:12.578Z,69.80
2019-01-31T23:23:41.366Z,79.10
2019-01-31T23:26:10.180Z,77.75
2019-01-31T23:28:38.909Z,71.33
2019-01-31T23:31:07.825Z,83.90
2019-01-31T23:33:36.766Z,67.78
2019-01-31T23:36:05.711Z,74.42
2019-01-31T23:38:34.463Z,71.50
2019-01-31T23:41:03.281Z,71.65
2019-01-31T23:43:36.105Z,71.02
2019-01-31T23:46:04.991Z,68.28
2019-01-31T23:48:33.711Z,76.35
2019-01-31T23:51:02.713Z,64.17
2019-01-31T23:53:31.476Z,61.95
2019-01-31T23:56:00.230Z,66.28
2019-01-31T23:58:29.753Z,67.47
